This is the latest recevied weather packets stored in our database for station/object W5DRO-13. If no packets are shown the sender has not sent any weather packets the latest 10 day(s).
| Time | Temp. | Humidity | Pressure | Rain* | Wind** | Luminosity | Snow |
|---|---|---|---|---|---|---|---|
| 1777717569 | 10° C | 85% | 1021.5 hPa | 0 mm | - | - | - |
| 1777717266 | 10° C | 83% | 1021.7 hPa | 0 mm | - | - | - |
| 1777716964 | 10° C | 81% | 1021.9 hPa | 0 mm | - | - | - |
| 1777716662 | 10° C | 81% | 1022.1 hPa | 0 mm | - | - | - |
| 1777716360 | 10° C | 81% | 1022 hPa | 0 mm | - | - | - |
| 1777716059 | 10° C | 80% | 1022.1 hPa | 0 mm | - | - | - |
| 1777715756 | 10.56° C | 79% | 1021.9 hPa | 0 mm | - | - | - |
| 1777715454 | 10° C | 78% | 1022.1 hPa | 0 mm | - | - | - |
| 1777715150 | 10° C | 76% | 1022.1 hPa | 0 mm | - | - | - |
| 1777714849 | 9.44° C | 77% | 1022 hPa | 0 mm | - | - | - |
| 1777714547 | 9.44° C | 79% | 1021.8 hPa | 0 mm | - | - | - |
| 1777714244 | 8.33° C | 84% | 1022 hPa | 0 mm | - | - | - |
| 1777713942 | 7.78° C | 90% | 1021.7 hPa | 0 mm | - | - | - |
| 1777713639 | 7.22° C | 91% | 1021.4 hPa | 0 mm | - | - | - |
| 1777713335 | 7.22° C | 91% | 1020.5 hPa | 0 mm | - | - | - |
| 1777713032 | 7.22° C | 91% | 1020.5 hPa | 0 mm | - | - | - |
| 1777712729 | 6.67° C | 91% | 1020.3 hPa | 0 mm | - | - | - |
| 1777712427 | 6.67° C | 91% | 1020.2 hPa | 0 mm | - | - | - |
| 1777712122 | 6.67° C | 91% | 1020.3 hPa | 0 mm | - | - | - |
| 1777711820 | 6.67° C | 90% | 1020.2 hPa | 0 mm | - | - | - |
| 1777711517 | 6.67° C | 91% | 1020 hPa | 0 mm | - | - | - |
| 1777711211 | 7.22° C | 91% | 1020.1 hPa | 0 mm | - | - | - |
| 1777710909 | 7.22° C | 92% | 1020.1 hPa | 0 mm | - | - | - |
| 1777710606 | 6.67° C | 92% | 1020.1 hPa | 0 mm | - | - | - |
| 1777710302 | 6.67° C | 92% | 1020.2 hPa | 0 mm | - | - | - |
* Rain latest hour (hover to see other rain measurements)
** Current wind speed in m/s (hover to see current wind gust speed)